Time;durP1;ratioP1;P1;durP2;ratioP2;P2;SDS_P1;SDS_P2;PMS_P1;PMS_P2;Temp;Humidity;BMP_temperature;BMP_pressure;BME280_temperature;BME280_humidity;BME280_pressure;Samples;Min_cycle;Max_cycle;Signal;HPM_P1;HPM_P2
2023/09/25 00:00:43;;;;;;;0.00;0.00;;;;;;;14.58;100.00;101938.50;5101410;28;20047;-42
2023/09/25 00:03:08;;;;;;;0.00;0.00;;;;;;;14.53;100.00;101949.03;5102899;28;20032;-43
2023/09/25 00:05:33;;;;;;;0.00;0.00;;;;;;;14.55;100.00;101943.44;5092442;28;20367;-45
2023/09/25 00:07:59;;;;;;;0.00;0.00;;;;;;;14.51;100.00;101951.06;5107637;28;20027;-42
2023/09/25 00:10:25;;;;;;;0.00;0.00;;;;;;;14.49;100.00;101951.22;5098664;28;20088;-42
2023/09/25 00:12:50;;;;;;;0.00;0.00;;;;;;;14.50;100.00;101954.78;5108675;28;20034;-42
2023/09/25 00:15:16;;;;;;;0.00;0.00;;;;;;;14.45;100.00;101958.03;5108372;28;20045;-43
2023/09/25 00:17:43;;;;;;;0.00;0.00;;;;;;;14.44;100.00;101952.81;5107187;28;20485;-42
2023/09/25 00:20:10;;;;;;;0.00;0.00;;;;;;;14.43;100.00;101945.72;5099619;28;20028;-43
2023/09/25 00:22:39;;;;;;;0.00;0.00;;;;;;;14.42;100.00;101954.84;5090559;28;20241;-43
2023/09/25 00:25:06;;;;;;;0.00;0.00;;;;;;;14.37;100.00;101938.28;5090672;28;20039;-41
2023/09/25 00:27:34;;;;;;;0.00;0.00;;;;;;;14.35;100.00;101943.91;5090320;28;20077;-45
2023/09/25 00:30:08;;;;;;;0.00;0.00;;;;;;;14.34;100.00;101939.50;5096520;28;20393;-41
2023/09/25 00:32:34;;;;;;;0.00;0.00;;;;;;;14.32;100.00;101935.28;5112933;28;20037;-42
2023/09/25 00:34:59;;;;;;;0.00;0.00;;;;;;;14.35;100.00;101932.19;5114900;28;20465;-42
2023/09/25 00:37:25;;;;;;;0.00;0.00;;;;;;;14.28;100.00;101929.38;5097161;28;20039;-43
2023/09/25 00:39:52;;;;;;;0.00;0.00;;;;;;;14.25;100.00;101925.16;5094906;28;20047;-41
2023/09/25 00:42:17;;;;;;;0.00;0.00;;;;;;;14.22;100.00;101922.00;5110278;28;20028;-41
2023/09/25 00:44:42;;;;;;;0.00;0.00;;;;;;;14.24;100.00;101923.50;5094571;28;20024;-43
2023/09/25 00:47:08;;;;;;;0.00;0.00;;;;;;;14.22;100.00;101927.41;5105394;28;20024;-45
2023/09/25 00:49:35;;;;;;;0.00;0.00;;;;;;;14.17;100.00;101932.50;5110978;28;20424;-43
2023/09/25 00:52:01;;;;;;;0.00;0.00;;;;;;;14.13;100.00;101932.00;5110121;28;20369;-43
2023/09/25 00:54:27;;;;;;;0.00;0.00;;;;;;;14.11;100.00;101933.22;5110389;28;20020;-43
2023/09/25 00:56:53;;;;;;;0.00;0.00;;;;;;;14.11;100.00;101934.03;5095572;28;20470;-42
2023/09/25 00:59:18;;;;;;;0.00;0.00;;;;;;;14.03;100.00;101940.38;5094171;28;20107;-44
2023/09/25 01:01:44;;;;;;;0.00;0.00;;;;;;;14.01;100.00;101928.88;5112257;28;20027;-44
2023/09/25 01:04:09;;;;;;;0.00;0.00;;;;;;;13.98;100.00;101933.78;5113949;28;20426;-43
2023/09/25 01:06:35;;;;;;;0.00;0.00;;;;;;;13.96;100.00;101930.44;5112011;28;20066;-42
2023/09/25 01:09:01;;;;;;;0.00;0.00;;;;;;;13.95;100.00;101928.72;5097141;28;20044;-41
2023/09/25 01:11:28;;;;;;;0.00;0.00;;;;;;;13.93;100.00;101926.22;5096164;28;20077;-42
2023/09/25 01:13:53;;;;;;;0.00;0.00;;;;;;;13.91;100.00;101932.84;5095879;28;20028;-43
2023/09/25 01:16:19;;;;;;;0.00;0.00;;;;;;;13.89;100.00;101924.03;5094610;28;20039;-40
2023/09/25 01:18:44;;;;;;;0.00;0.00;;;;;;;13.94;100.00;101921.66;5098276;28;20106;-41
2023/09/25 01:21:11;;;;;;;0.00;0.00;;;;;;;13.86;100.00;101929.81;5099468;28;20020;-44
2023/09/25 01:23:36;;;;;;;0.00;0.00;;;;;;;13.76;100.00;101924.59;5103845;28;20174;-40
2023/09/25 01:26:01;;;;;;;0.00;0.00;;;;;;;13.70;100.00;101928.88;5098424;28;20103;-44
2023/09/25 01:28:27;;;;;;;0.00;0.00;;;;;;;13.62;100.00;101928.91;5100327;28;20562;-42
2023/09/25 01:30:54;;;;;;;0.00;0.00;;;;;;;13.62;100.00;101923.50;5093687;28;20068;-43
2023/09/25 01:33:19;;;;;;;0.00;0.00;;;;;;;13.60;100.00;101930.94;5093650;28;20165;-42
2023/09/25 01:35:44;;;;;;;0.00;0.00;;;;;;;13.61;100.00;101921.78;5093991;28;20107;-43
2023/09/25 01:38:10;;;;;;;0.00;0.00;;;;;;;13.61;100.00;101924.50;5110013;28;20027;-43
2023/09/25 01:40:35;;;;;;;0.00;0.00;;;;;;;13.56;100.00;101916.06;5107788;27;20019;-43
2023/09/25 01:43:00;;;;;;;0.00;0.00;;;;;;;13.50;100.00;101919.47;5104080;28;20059;-43
2023/09/25 01:45:26;;;;;;;0.00;0.00;;;;;;;13.45;100.00;101916.44;5106958;28;20055;-45
2023/09/25 01:47:52;;;;;;;0.00;0.00;;;;;;;13.37;100.00;101920.84;5092936;28;20088;-44
2023/09/25 01:50:22;;;;;;;0.00;0.00;;;;;;;13.35;100.00;101911.28;5094463;28;20107;-44
2023/09/25 01:52:50;;;;;;;0.00;0.00;;;;;;;13.36;100.00;101916.47;5111563;27;20427;-40
2023/09/25 01:55:16;;;;;;;0.00;0.00;;;;;;;13.42;100.00;101914.94;5104699;28;20020;-43
2023/09/25 01:57:41;;;;;;;0.00;0.00;;;;;;;13.38;100.00;101906.34;5109125;28;20028;-41
2023/09/25 02:00:10;;;;;;;0.00;0.00;;;;;;;13.31;100.00;101912.63;5110545;28;20134;-45
2023/09/25 02:02:36;;;;;;;0.00;0.00;;;;;;;13.33;100.00;101906.03;5094747;28;20408;-44
2023/09/25 02:05:02;;;;;;;0.00;0.00;;;;;;;13.30;100.00;101902.84;5093134;28;20439;-42
2023/09/25 02:07:28;;;;;;;0.00;0.00;;;;;;;13.28;100.00;101905.69;5093024;28;20099;-42
2023/09/25 02:09:53;;;;;;;0.00;0.00;;;;;;;13.27;100.00;101892.34;5092349;28;20071;-43
2023/09/25 02:12:18;;;;;;;0.00;0.00;;;;;;;13.26;100.00;101883.38;5097558;28;20027;-44
2023/09/25 02:14:44;;;;;;;0.00;0.00;;;;;;;13.23;100.00;101886.41;5090769;28;20032;-40
2023/09/25 02:17:09;;;;;;;0.00;0.00;;;;;;;13.19;100.00;101885.06;5091818;28;20036;-44
2023/09/25 02:19:34;;;;;;;0.00;0.00;;;;;;;13.19;100.00;101885.06;5092071;28;20016;-43
2023/09/25 02:22:00;;;;;;;0.00;0.00;;;;;;;13.17;100.00;101884.41;5109090;28;20027;-44
2023/09/25 02:24:25;;;;;;;0.00;0.00;;;;;;;13.17;100.00;101889.81;5112131;28;20024;-44
2023/09/25 02:26:50;;;;;;;0.00;0.00;;;;;;;13.17;100.00;101881.72;5112023;28;20028;-41
2023/09/25 02:29:16;;;;;;;0.00;0.00;;;;;;;13.18;100.00;101883.38;5110768;28;20084;-44
2023/09/25 02:31:41;;;;;;;0.00;0.00;;;;;;;13.18;100.00;101888.78;5112770;28;20532;-42
2023/09/25 02:34:14;;;;;;;0.00;0.00;;;;;;;13.16;100.00;101893.53;5105455;28;20023;-43
2023/09/25 02:36:39;;;;;;;0.00;0.00;;;;;;;13.17;100.00;101881.72;5109863;28;20031;-43
2023/09/25 02:39:05;;;;;;;0.00;0.00;;;;;;;13.21;100.00;101888.44;5109245;28;20034;-42
2023/09/25 02:41:30;;;;;;;0.00;0.00;;;;;;;13.19;100.00;101895.88;5097607;28;20028;-44
2023/09/25 02:43:56;;;;;;;0.00;0.00;;;;;;;13.18;100.00;101886.09;5091941;28;20039;-42
2023/09/25 02:46:21;;;;;;;0.00;0.00;;;;;;;13.18;100.00;101881.53;5091187;28;20052;-44
2023/09/25 02:48:46;;;;;;;0.00;0.00;;;;;;;13.20;100.00;101877.81;5091508;28;20089;-43
2023/09/25 02:51:12;;;;;;;0.00;0.00;;;;;;;13.14;100.00;101876.66;5096369;28;20024;-41
2023/09/25 02:53:37;;;;;;;0.00;0.00;;;;;;;13.19;100.00;101874.25;5105220;28;20072;-44
2023/09/25 02:56:03;;;;;;;0.00;0.00;;;;;;;13.18;100.00;101873.41;5105057;28;20030;-43
2023/09/25 02:58:28;;;;;;;0.00;0.00;;;;;;;13.19;100.00;101879.66;5091251;28;20032;-44
2023/09/25 03:00:53;;;;;;;0.00;0.00;;;;;;;13.13;100.00;101874.97;5096795;28;20075;-43
2023/09/25 03:03:19;;;;;;;0.00;0.00;;;;;;;13.13;100.00;101869.56;5100943;28;20024;-43
2023/09/25 03:05:44;;;;;;;0.00;0.00;;;;;;;13.07;100.00;101868.38;5100879;28;20423;-44
2023/09/25 03:08:09;;;;;;;0.00;0.00;;;;;;;13.11;100.00;101866.16;5110644;28;20028;-42
2023/09/25 03:10:35;;;;;;;0.00;0.00;;;;;;;13.09;100.00;101869.06;5111490;28;20373;-43
2023/09/25 03:13:00;;;;;;;0.00;0.00;;;;;;;13.08;100.00;101878.16;5096902;28;20371;-43
2023/09/25 03:15:25;;;;;;;0.00;0.00;;;;;;;13.09;100.00;101876.34;5091470;28;20252;-42
2023/09/25 03:17:51;;;;;;;0.00;0.00;;;;;;;13.07;100.00;101875.66;5089567;28;20036;-43
2023/09/25 03:20:16;;;;;;;0.00;0.00;;;;;;;13.04;100.00;101879.56;5094516;28;20119;-42
2023/09/25 03:22:42;;;;;;;0.00;0.00;;;;;;;13.00;100.00;101874.66;5091289;28;20024;-42
2023/09/25 03:25:08;;;;;;;0.00;0.00;;;;;;;12.93;100.00;101879.91;5091301;28;20036;-45
2023/09/25 03:27:33;;;;;;;0.00;0.00;;;;;;;12.93;100.00;101879.91;5092126;28;20035;-43
2023/09/25 03:29:59;;;;;;;0.00;0.00;;;;;;;12.93;100.00;101883.47;5091349;28;20485;-44
2023/09/25 03:32:24;;;;;;;0.00;0.00;;;;;;;12.91;100.00;101877.38;5099864;28;20027;-43
2023/09/25 03:34:49;;;;;;;0.00;0.00;;;;;;;12.93;100.00;101880.75;5111026;28;20107;-43
2023/09/25 03:37:15;;;;;;;0.00;0.00;;;;;;;12.91;100.00;101882.78;5098942;28;20035;-43
2023/09/25 03:39:40;;;;;;;0.00;0.00;;;;;;;12.90;100.00;101882.94;5090829;28;20025;-42
2023/09/25 03:42:05;;;;;;;0.00;0.00;;;;;;;12.88;100.00;101888.53;5096844;28;20027;-43
2023/09/25 03:44:31;;;;;;;0.00;0.00;;;;;;;12.89;100.00;101884.81;5106952;28;20016;-41
2023/09/25 03:46:56;;;;;;;0.00;0.00;;;;;;;12.90;100.00;101881.09;5102006;28;20401;-41
2023/09/25 03:49:22;;;;;;;0.00;0.00;;;;;;;12.91;100.00;101888.19;5104102;28;20043;-44
2023/09/25 03:51:47;;;;;;;0.00;0.00;;;;;;;13.00;100.00;101901.69;5108656;28;20098;-45
2023/09/25 03:54:12;;;;;;;0.00;0.00;;;;;;;13.04;100.00;101900.34;5108466;28;20563;-45
2023/09/25 03:56:38;;;;;;;0.00;0.00;;;;;;;13.07;100.00;101902.69;5089488;28;20444;-41
2023/09/25 03:59:03;;;;;;;0.00;0.00;;;;;;;13.12;100.00;101905.72;5093415;28;20127;-45
2023/09/25 04:01:29;;;;;;;0.00;0.00;;;;;;;13.16;100.00;101896.22;5091486;28;20052;-40
2023/09/25 04:03:54;;;;;;;0.00;0.00;;;;;;;13.23;100.00;101901.78;5102893;28;20450;-41
2023/09/25 04:06:20;;;;;;;0.00;0.00;;;;;;;13.22;100.00;101900.09;5107555;28;20484;-41
2023/09/25 04:08:45;;;;;;;0.00;0.00;;;;;;;13.25;100.00;101911.44;5098588;28;20031;-42
2023/09/25 04:11:11;;;;;;;0.00;0.00;;;;;;;13.27;100.00;101911.25;5094644;28;20085;-44
2023/09/25 04:13:37;;;;;;;0.10;0.00;;;;;;;13.28;100.00;101910.28;5089387;28;20038;-43
2023/09/25 04:16:03;;;;;;;0.00;0.00;;;;;;;13.30;100.00;101903.66;5088702;28;20031;-42
2023/09/25 04:18:29;;;;;;;0.00;0.00;;;;;;;13.29;100.00;101901.97;5089450;28;20411;-41
2023/09/25 04:20:55;;;;;;;0.00;0.00;;;;;;;13.26;100.00;101905.03;5091157;28;20051;-44
2023/09/25 04:23:21;;;;;;;0.00;0.00;;;;;;;13.27;100.00;101893.22;5091030;28;20474;-44
2023/09/25 04:25:52;;;;;;;0.00;0.00;;;;;;;13.30;100.00;101903.66;5088978;28;20028;-43
2023/09/25 04:28:17;;;;;;;0.00;0.00;;;;;;;13.32;100.00;101901.63;5093609;28;20044;-44
2023/09/25 04:30:43;;;;;;;0.00;0.00;;;;;;;13.35;100.00;101904.00;5098367;28;20070;-44
2023/09/25 04:33:09;;;;;;;0.00;0.00;;;;;;;13.37;100.00;101898.38;5097305;28;20040;-43
2023/09/25 04:35:36;;;;;;;0.00;0.00;;;;;;;13.36;100.00;101905.66;5088539;28;20024;-42
2023/09/25 04:38:03;;;;;;;0.00;0.00;;;;;;;13.34;100.00;101899.59;5088752;28;20498;-42
2023/09/25 04:40:31;;;;;;;0.00;0.00;;;;;;;13.36;100.00;101902.97;5088487;28;20067;-41
2023/09/25 04:42:57;;;;;;;0.00;0.00;;;;;;;13.35;100.00;101906.69;5097931;28;20358;-42
2023/09/25 04:45:23;;;;;;;0.00;0.00;;;;;;;13.35;100.00;101904.00;5095430;28;20083;-42
2023/09/25 04:47:53;;;;;;;0.00;0.00;;;;;;;13.37;100.00;101899.22;5086392;28;20032;-42
2023/09/25 04:50:20;;;;;;;0.00;0.00;;;;;;;13.37;100.00;101912.75;5093153;28;20544;-44
2023/09/25 04:52:45;;;;;;;0.00;0.00;;;;;;;13.34;100.00;101918.50;5096395;28;20482;-44
2023/09/25 04:55:12;;;;;;;0.00;0.00;;;;;;;13.31;100.00;101913.44;5096263;28;20031;-41
2023/09/25 04:57:45;;;;;;;0.00;0.00;;;;;;;13.31;100.00;101916.16;5107776;28;20039;-42
2023/09/25 05:00:21;;;;;;;0.00;0.00;;;;;;;13.31;100.00;101913.44;5097344;28;20200;-45
2023/09/25 05:02:48;;;;;;;0.00;0.00;;;;;;;13.35;100.00;101905.84;5092247;28;20032;-43
2023/09/25 05:05:17;;;;;;;0.00;0.00;;;;;;;13.29;100.00;101915.47;5103758;28;20062;-43
2023/09/25 05:07:44;;;;;;;0.00;0.00;;;;;;;13.28;100.00;101916.50;5090046;28;20031;-43
2023/09/25 05:10:14;;;;;;;0.00;0.00;;;;;;;13.33;100.00;101919.53;5093269;28;20470;-43
2023/09/25 05:12:40;;;;;;;0.00;0.00;;;;;;;13.27;100.00;101927.47;5100958;28;20050;-42
2023/09/25 05:15:07;;;;;;;0.00;0.00;;;;;;;13.24;100.00;101920.53;5108484;28;20153;-44
2023/09/25 05:17:36;;;;;;;0.00;0.00;;;;;;;13.26;100.00;101928.47;5104112;28;20040;-41
2023/09/25 05:20:08;;;;;;;0.00;0.00;;;;;;;13.25;100.00;101924.09;5098472;28;20153;-43
2023/09/25 05:22:34;;;;;;;0.00;0.00;;;;;;;13.22;100.00;101919.88;5100668;28;20508;-42
2023/09/25 05:24:59;;;;;;;0.00;0.00;;;;;;;13.20;100.00;101932.72;5094523;28;20256;-44
2023/09/25 05:27:24;;;;;;;0.00;0.00;;;;;;;13.13;100.00;101934.41;5099852;28;20537;-42
2023/09/25 05:29:51;;;;;;;0.00;0.00;;;;;;;13.08;100.00;101940.34;5101075;28;20028;-43
2023/09/25 05:32:16;;;;;;;0.00;0.00;;;;;;;13.01;100.00;101952.03;5104174;28;20020;-42
2023/09/25 05:34:42;;;;;;;0.00;0.00;;;;;;;13.00;100.00;101950.31;5107913;28;20478;-42
2023/09/25 05:37:07;;;;;;;0.00;0.00;;;;;;;12.96;100.00;101950.66;5107467;28;20036;-42
2023/09/25 05:39:32;;;;;;;0.00;0.00;;;;;;;12.98;100.00;101944.25;5108755;28;20119;-41
2023/09/25 05:41:58;;;;;;;0.00;0.00;;;;;;;13.01;100.00;101935.81;5102637;28;20032;-41
2023/09/25 05:44:23;;;;;;;0.00;0.00;;;;;;;13.00;100.00;101939.50;5106358;28;20434;-41
2023/09/25 05:46:48;;;;;;;0.00;0.00;;;;;;;12.94;100.00;101939.19;5105057;28;20027;-42
2023/09/25 05:49:14;;;;;;;0.00;0.00;;;;;;;12.92;100.00;101953.88;5098665;28;20028;-44
2023/09/25 05:51:39;;;;;;;0.00;0.00;;;;;;;12.92;100.00;101941.19;5105335;28;20023;-41
2023/09/25 05:54:05;;;;;;;0.00;0.00;;;;;;;12.93;100.00;101951.00;5092453;28;20039;-42
2023/09/25 05:56:31;;;;;;;0.00;0.00;;;;;;;12.93;100.00;101936.66;5101495;28;20115;-42
2023/09/25 05:58:56;;;;;;;0.00;0.00;;;;;;;12.95;100.00;101937.31;5102151;28;20088;-45
2023/09/25 06:01:22;;;;;;;0.00;0.00;;;;;;;12.98;100.00;101947.81;5103578;28;20047;-43
2023/09/25 06:03:49;;;;;;;0.00;0.00;;;;;;;12.91;100.00;101950.34;5101739;28;20157;-45
2023/09/25 06:06:15;;;;;;;0.00;0.00;;;;;;;12.90;100.00;101953.19;5103780;28;20024;-44
2023/09/25 06:08:40;;;;;;;0.00;0.00;;;;;;;12.87;100.00;101956.25;5093968;28;20199;-42
2023/09/25 06:11:05;;;;;;;0.00;0.00;;;;;;;12.92;100.00;101954.72;5101879;28;20055;-44
2023/09/25 06:13:31;;;;;;;0.00;0.00;;;;;;;12.96;100.00;101950.66;5092250;28;20466;-43
2023/09/25 06:15:57;;;;;;;0.00;0.00;;;;;;;12.95;100.00;101959.81;5099433;28;20477;-43
2023/09/25 06:18:22;;;;;;;0.00;0.00;;;;;;;12.98;100.00;101971.25;5111747;28;20036;-45
2023/09/25 06:20:48;;;;;;;0.00;0.00;;;;;;;13.01;100.00;101979.06;5094661;28;20730;-43
2023/09/25 06:23:15;;;;;;;0.00;0.00;;;;;;;13.02;100.00;101975.31;5099401;28;20542;-45
2023/09/25 06:25:47;;;;;;;0.00;0.00;;;;;;;13.06;100.00;101984.75;5095056;28;20027;-43
2023/09/25 06:28:14;;;;;;;0.00;0.00;;;;;;;13.14;100.00;101980.22;5102386;28;20515;-43
2023/09/25 06:30:41;;;;;;;0.00;0.00;;;;;;;13.23;100.00;101986.44;5098341;28;20024;-46
2023/09/25 06:33:06;;;;;;;0.00;0.00;;;;;;;13.25;100.00;101981.72;5098497;28;20074;-42
2023/09/25 06:35:33;;;;;;;0.00;0.00;;;;;;;13.28;100.00;101986.81;5101882;28;20043;-42
2023/09/25 06:37:58;;;;;;;0.00;0.00;;;;;;;13.31;100.00;101983.75;5107479;28;20118;-42
2023/09/25 06:40:24;;;;;;;0.00;0.00;;;;;;;13.43;100.00;101977.97;5110356;28;20050;-43
2023/09/25 06:42:49;;;;;;;0.00;0.00;;;;;;;13.53;100.00;101984.03;5110289;27;20094;-43
2023/09/25 06:45:14;;;;;;;0.00;0.00;;;;;;;13.57;100.00;101980.81;5103287;28;20035;-44
2023/09/25 06:47:42;;;;;;;0.00;0.00;;;;;;;13.59;100.00;101981.50;5103098;28;20523;-44
2023/09/25 06:50:07;;;;;;;0.00;0.00;;;;;;;13.60;100.00;101980.47;5105183;27;20378;-44
2023/09/25 06:52:33;;;;;;;0.00;0.00;;;;;;;13.59;100.00;101975.25;5101832;28;20051;-41
2023/09/25 06:54:58;;;;;;;0.00;0.00;;;;;;;13.70;100.00;101984.84;5100354;27;20043;-41
2023/09/25 06:57:24;;;;;;;0.00;0.00;;;;;;;13.67;100.00;101986.03;5101825;28;20069;-44
2023/09/25 06:59:49;;;;;;;0.00;0.00;;;;;;;13.68;100.00;101987.72;5105131;27;20180;-44
2023/09/25 07:02:15;;;;;;;0.00;0.00;;;;;;;13.68;100.00;101985.00;5096696;28;20020;-40
2023/09/25 07:04:41;;;;;;;0.00;0.00;;;;;;;13.81;100.00;101996.13;5103596;27;20016;-43
2023/09/25 07:07:07;;;;;;;0.00;0.00;;;;;;;13.86;100.00;101990.19;5095758;28;20554;-42
2023/09/25 07:09:32;;;;;;;0.00;0.00;;;;;;;14.02;100.00;101983.84;5092224;27;20182;-40
2023/09/25 07:11:59;;;;;;;0.00;0.00;;;;;;;14.14;100.00;101981.56;5100455;28;20024;-41
2023/09/25 07:14:24;;;;;;;0.00;0.00;;;;;;;14.35;100.00;101978.25;5102402;28;20038;-42
2023/09/25 07:16:51;;;;;;;0.00;0.00;;;;;;;14.49;100.00;101986.44;5096321;28;20039;-42
2023/09/25 07:19:16;;;;;;;0.00;0.00;;;;;;;14.66;100.00;101980.94;5097846;27;20398;-41
2023/09/25 07:21:42;;;;;;;0.00;0.00;;;;;;;14.88;100.00;101979.25;5096784;28;20035;-43
2023/09/25 07:24:07;;;;;;;0.00;0.00;;;;;;;15.03;100.00;101977.41;5096396;28;20430;-43
2023/09/25 07:26:33;;;;;;;0.00;0.00;;;;;;;15.25;100.00;101974.84;5106515;28;20032;-42
2023/09/25 07:28:58;;;;;;;0.00;0.00;;;;;;;15.47;100.00;101973.91;5099097;28;20030;-40
2023/09/25 07:31:24;;;;;;;0.00;0.00;;;;;;;15.39;100.00;101965.03;5095531;28;20093;-43
2023/09/25 07:33:50;;;;;;;0.00;0.00;;;;;;;15.70;100.00;101963.00;5105162;28;20027;-47
2023/09/25 07:36:20;;;;;;;0.00;0.00;;;;;;;15.72;100.00;101963.66;5102895;27;20457;-41
2023/09/25 07:38:46;;;;;;;0.00;0.00;;;;;;;15.73;100.00;101967.19;5094527;28;20019;-41
2023/09/25 07:41:12;;;;;;;0.00;0.00;;;;;;;15.67;100.00;101949.78;5100625;28;20134;-43
2023/09/25 07:43:38;;;;;;;0.00;0.00;;;;;;;15.80;100.00;101960.00;5100202;27;20030;-41
2023/09/25 07:46:03;;;;;;;0.00;0.00;;;;;;;15.94;100.00;101953.69;5098612;28;20035;-42
2023/09/25 07:48:32;;;;;;;0.00;0.00;;;;;;;15.74;100.00;101949.88;5101799;28;20027;-43
2023/09/25 07:51:00;;;;;;;0.00;0.00;;;;;;;15.98;100.00;101963.16;5096179;28;20047;-41
2023/09/25 07:53:28;;;;;;;0.00;0.00;;;;;;;15.78;100.00;101956.63;5100589;28;20043;-43
2023/09/25 07:55:53;;;;;;;0.00;0.00;;;;;;;15.79;100.00;101953.69;5097127;28;20032;-43
2023/09/25 07:58:19;;;;;;;0.00;0.00;;;;;;;15.73;100.00;101961.78;5096246;28;20035;-43
2023/09/25 08:00:46;;;;;;;0.00;0.00;;;;;;;16.11;100.00;101958.88;5095357;28;20059;-43
2023/09/25 08:03:16;;;;;;;0.00;0.00;;;;;;;15.70;100.00;101964.88;5103412;27;20039;-45
2023/09/25 08:05:42;;;;;;;0.00;0.00;;;;;;;15.93;100.00;101962.88;5102539;28;20085;-44
2023/09/25 08:08:11;;;;;;;0.00;0.00;;;;;;;16.00;100.00;101969.22;5097478;28;20043;-43
2023/09/25 08:10:37;;;;;;;0.00;0.00;;;;;;;15.97;100.00;101964.16;5102770;28;20054;-42
2023/09/25 08:13:02;;;;;;;0.00;0.00;;;;;;;16.11;100.00;101962.44;5105668;28;20038;-45
2023/09/25 08:15:28;;;;;;;0.00;0.00;;;;;;;16.16;100.00;101972.72;5092587;28;20028;-40
2023/09/25 08:17:53;;;;;;;0.00;0.00;;;;;;;16.31;100.00;101976.25;5108258;28;20598;-44
2023/09/25 08:20:22;;;;;;;0.00;0.00;;;;;;;16.45;100.00;101971.78;5094237;28;20119;-42
2023/09/25 08:22:51;;;;;;;0.00;0.00;;;;;;;16.80;100.00;101971.97;5095624;28;20024;-42
2023/09/25 08:25:17;;;;;;;0.00;0.00;;;;;;;17.46;100.00;101979.78;5098305;28;20039;-44
2023/09/25 08:27:43;;;;;;;0.00;0.00;;;;;;;17.45;100.00;101984.38;5095626;28;20020;-41
2023/09/25 08:30:09;;;;;;;0.00;0.00;;;;;;;18.16;100.00;101986.84;5096493;28;20028;-42
2023/09/25 08:32:35;;;;;;;0.00;0.00;;;;;;;18.35;100.00;101990.69;5105513;28;20028;-45
2023/09/25 08:35:01;;;;;;;0.00;0.00;;;;;;;18.22;100.00;101982.50;5096500;28;20413;-44
2023/09/25 08:37:27;;;;;;;0.00;0.00;;;;;;;18.39;100.00;101986.50;5094198;28;20455;-45
2023/09/25 08:39:53;;;;;;;0.00;0.00;;;;;;;18.94;100.00;101985.56;5094088;28;20028;-44
2023/09/25 08:42:22;;;;;;;0.00;0.00;;;;;;;19.34;100.00;101986.38;5097928;28;20032;-44
2023/09/25 08:44:50;;;;;;;0.00;0.00;;;;;;;18.96;100.00;101992.50;5094093;28;20415;-41
2023/09/25 08:47:15;;;;;;;;;;;;;;;19.13;100.00;101989.34;5102716;28;20019;-44
2023/09/25 08:49:42;;;;;;;0.00;0.00;;;;;;;18.80;100.00;101991.03;5109523;28;19919;-43
2023/09/25 08:52:07;;;;;;;0.00;0.00;;;;;;;18.91;100.00;101989.56;5091498;27;20373;-42
2023/09/25 08:54:33;;;;;;;0.00;0.00;;;;;;;19.28;100.00;101996.25;5094473;28;20035;-43
2023/09/25 08:56:59;;;;;;;0.00;0.00;;;;;;;18.76;100.00;101994.34;5100370;27;20059;-43
2023/09/25 08:59:25;;;;;;;0.00;0.00;;;;;;;18.69;100.00;102004.38;5122729;27;20028;-42
2023/09/25 09:01:51;;;;;;;0.00;0.00;;;;;;;18.17;100.00;101998.59;5099316;27;20515;-42
2023/09/25 09:04:16;;;;;;;0.00;0.00;;;;;;;18.85;100.00;101998.56;5097208;27;20088;-42
2023/09/25 09:06:42;;;;;;;0.00;0.00;;;;;;;19.36;100.00;102000.66;5100431;28;20119;-43
2023/09/25 09:09:09;;;;;;;0.00;0.00;;;;;;;18.70;100.00;101987.81;5105805;28;20100;-43
2023/09/25 09:11:35;;;;;;;0.00;0.00;;;;;;;18.83;100.00;101982.41;5101185;27;20080;-44
2023/09/25 09:14:01;;;;;;;0.00;0.00;;;;;;;18.96;100.00;101991.66;5098913;28;20475;-42
2023/09/25 09:16:27;;;;;;;0.00;0.00;;;;;;;18.72;100.00;101987.59;5094150;28;20035;-45
2023/09/25 09:19:08;;;;;;;0.00;0.00;;;;;;;18.35;100.00;101998.00;5109773;28;20028;-42
2023/09/25 09:21:33;;;;;;;0.00;0.00;;;;;;;18.18;100.00;102003.00;5106850;28;20036;-42
2023/09/25 09:23:59;;;;;;;0.00;0.00;;;;;;;18.21;100.00;102000.69;5100709;28;20464;-42
2023/09/25 09:26:25;;;;;;;0.00;0.00;;;;;;;18.29;100.00;101993.41;5102959;28;20038;-44
2023/09/25 09:28:53;;;;;;;0.00;0.00;;;;;;;18.05;100.00;102001.06;5112599;27;20024;-42
2023/09/25 09:31:19;;;;;;;0.00;0.00;;;;;;;17.88;100.00;102016.09;5116911;27;20038;-46
2023/09/25 09:33:44;;;;;;;0.00;0.00;;;;;;;18.01;100.00;102004.38;5108299;27;20036;-44
2023/09/25 09:36:12;;;;;;;0.00;0.00;;;;;;;18.19;100.00;102013.72;5112948;27;20255;-42
2023/09/25 09:38:39;;;;;;;;;;;;;;;18.05;100.00;102009.22;5109408;28;20035;-47
2023/09/25 09:41:06;;;;;;;0.00;0.00;;;;;;;18.23;100.00;102003.22;5100434;28;20004;-45
2023/09/25 09:43:31;;;;;;;0.00;0.00;;;;;;;18.10;100.00;102006.75;5110530;28;20099;-41
2023/09/25 09:45:57;;;;;;;0.00;0.00;;;;;;;17.97;100.00;102015.69;5093893;27;20494;-42
2023/09/25 09:48:23;;;;;;;0.00;0.00;;;;;;;18.23;100.00;102005.13;5106436;28;20024;-43
2023/09/25 09:50:50;;;;;;;0.00;0.00;;;;;;;18.50;100.00;102012.31;5106840;28;20055;-43
2023/09/25 09:53:17;;;;;;;0.00;0.00;;;;;;;18.47;100.00;102014.63;5107411;28;20024;-41
2023/09/25 09:55:44;;;;;;;0.00;0.00;;;;;;;18.43;100.00;102016.91;5097678;28;20329;-42
2023/09/25 09:58:11;;;;;;;0.00;0.00;;;;;;;18.39;100.00;102015.66;5108085;28;20525;-44
2023/09/25 10:00:38;;;;;;;0.00;0.00;;;;;;;18.43;100.00;102012.31;5098462;28;20039;-45
2023/09/25 10:03:04;;;;;;;;;;;;;;;18.40;100.00;102017.31;5092670;28;20031;-42
2023/09/25 10:05:29;;;;;;;0.00;0.00;;;;;;;18.40;100.00;102020.03;5090219;28;20389;-43
2023/09/25 10:08:11;;;;;;;0.00;0.00;;;;;;;18.48;100.00;102014.41;5110386;28;20236;-44
2023/09/25 10:10:38;;;;;;;0.00;0.00;;;;;;;18.51;100.00;102005.84;5098515;28;20028;-45
2023/09/25 10:13:07;;;;;;;0.00;0.00;;;;;;;18.76;100.00;102002.53;5098871;28;20024;-44
2023/09/25 10:15:33;;;;;;;0.00;0.00;;;;;;;18.85;100.00;101998.56;5113308;28;20070;-43
2023/09/25 10:17:58;;;;;;;0.00;0.00;;;;;;;18.84;100.00;102003.16;5112614;28;20502;-41
2023/09/25 10:20:42;;;;;;;0.00;0.00;;;;;;;18.70;100.00;102006.09;5105856;28;20034;-45
2023/09/25 10:23:16;;;;;;;0.00;0.00;;;;;;;18.88;100.00;102016.38;5103200;28;20484;-43
2023/09/25 10:25:46;;;;;;;0.00;0.00;;;;;;;19.06;100.00;102014.75;5096377;28;20135;-44
2023/09/25 10:28:30;;;;;;;0.00;0.00;;;;;;;19.18;100.00;102016.84;5108761;27;20065;-43
2023/09/25 10:30:57;;;;;;;0.00;0.00;;;;;;;19.37;100.00;102004.22;5108034;28;20385;-44
2023/09/25 10:33:22;;;;;;;0.00;0.00;;;;;;;19.45;100.00;102007.56;5111195;27;20457;-42
2023/09/25 10:35:49;;;;;;;0.00;0.00;;;;;;;19.40;100.00;102007.34;5108015;27;20051;-44
2023/09/25 10:38:25;;;;;;;0.00;0.00;;;;;;;19.48;100.00;102018.06;5098432;28;20513;-44
2023/09/25 10:40:52;;;;;;;0.00;0.00;;;;;;;19.38;100.00;102017.66;5112526;28;20114;-41
2023/09/25 10:43:19;;;;;;;0.00;0.00;;;;;;;19.23;100.00;102026.06;5105288;27;20383;-44
2023/09/25 10:45:45;;;;;;;0.00;0.00;;;;;;;19.25;100.00;102017.69;5091970;28;20077;-44
2023/09/25 10:48:11;;;;;;;0.00;0.00;;;;;;;19.20;100.00;102010.13;5093847;28;20458;-45
2023/09/25 10:50:37;;;;;;;0.00;0.00;;;;;;;19.06;100.00;102016.59;5096375;28;20386;-43
2023/09/25 10:53:05;;;;;;;0.00;0.00;;;;;;;19.17;100.00;102006.94;5093577;28;20103;-43
2023/09/25 10:55:30;;;;;;;;;;;;;;;19.37;100.00;102009.66;5106755;28;20024;-46
2023/09/25 10:57:55;;;;;;;0.00;0.00;;;;;;;19.42;100.00;102018.91;5109186;27;20388;-44
2023/09/25 11:00:21;;;;;;;0.00;0.00;;;;;;;19.15;100.00;102017.25;5111085;28;20050;-43
2023/09/25 11:02:47;;;;;;;0.00;0.00;;;;;;;19.33;100.00;102017.47;5086434;28;20027;-42
2023/09/25 11:05:12;;;;;;;0.00;0.00;;;;;;;19.64;100.00;102013.19;5107005;28;20028;-40
2023/09/25 11:07:38;;;;;;;0.00;0.00;;;;;;;19.88;100.00;102015.28;5099166;28;20024;-44
2023/09/25 11:10:04;;;;;;;0.00;0.00;;;;;;;20.15;100.00;102029.66;5109434;28;20027;-43
2023/09/25 11:12:32;;;;;;;0.00;0.00;;;;;;;19.95;100.00;102032.44;5107431;28;20533;-41
2023/09/25 11:14:58;;;;;;;0.00;0.00;;;;;;;19.74;100.00;102040.94;5095083;28;20028;-42